createdAt,value
2022-11-01T00:02:16.043Z,80.34
2022-11-01T00:04:44.390Z,80.71
2022-11-01T00:07:14.318Z,80.65
2022-11-01T00:09:42.162Z,80.49
2022-11-01T00:12:10.276Z,80.58
2022-11-01T00:14:38.199Z,80.61
2022-11-01T00:17:06.526Z,80.59
2022-11-01T00:19:35.716Z,80.47
2022-11-01T00:22:03.830Z,80.53
2022-11-01T00:24:31.793Z,80.55
2022-11-01T00:27:00.509Z,80.46
2022-11-01T00:29:28.320Z,80.46
2022-11-01T00:31:57.958Z,80.63
2022-11-01T00:34:26.880Z,80.64
2022-11-01T00:36:55.447Z,80.86
2022-11-01T00:39:30.481Z,80.94
2022-11-01T00:41:59.386Z,81.02
2022-11-01T00:44:28.400Z,81.04
2022-11-01T00:46:56.736Z,81.11
2022-11-01T00:49:25.458Z,81.13
2022-11-01T00:51:53.544Z,81.06
2022-11-01T00:54:21.608Z,81.07
2022-11-01T00:56:49.389Z,81.20
2022-11-01T00:59:17.504Z,81.25
2022-11-01T01:01:45.656Z,81.20
2022-11-01T01:04:15.505Z,81.31
2022-11-01T01:06:43.656Z,81.31
2022-11-01T01:09:11.758Z,81.25
2022-11-01T01:11:41.612Z,81.40
2022-11-01T01:14:10.745Z,81.28
2022-11-01T01:16:39.273Z,81.38
2022-11-01T01:19:08.424Z,81.42
2022-11-01T01:21:37.321Z,81.43
2022-11-01T01:24:05.442Z,81.54
2022-11-01T01:26:33.299Z,81.91
2022-11-01T01:29:01.119Z,81.95
2022-11-01T01:31:28.941Z,82.03
2022-11-01T01:33:59.824Z,81.97
2022-11-01T01:36:28.178Z,82.14
2022-11-01T01:38:56.923Z,82.13
2022-11-01T01:41:44.969Z,82.02
2022-11-01T01:44:44.702Z,81.90
2022-11-01T01:47:23.643Z,81.99
2022-11-01T01:50:03.016Z,81.91
2022-11-01T01:52:33.662Z,81.80
2022-11-01T01:55:07.158Z,81.79
2022-11-01T01:57:37.164Z,81.81
2022-11-01T02:00:07.455Z,81.78
2022-11-01T02:02:40.953Z,81.88
2022-11-01T02:05:24.339Z,81.83
2022-11-01T02:07:52.250Z,82.19
2022-11-01T02:10:38.590Z,82.09
2022-11-01T02:13:15.188Z,82.17
2022-11-01T02:16:03.537Z,82.17
2022-11-01T02:18:49.685Z,82.38
2022-11-01T02:21:59.270Z,82.40
2022-11-01T02:24:46.518Z,82.58
2022-11-01T02:27:22.591Z,82.67
2022-11-01T02:30:05.664Z,82.31
2022-11-01T02:32:57.064Z,82.38
2022-11-01T02:35:45.658Z,82.51
2022-11-01T02:38:45.390Z,82.22
2022-11-01T02:41:45.068Z,82.22
2022-11-01T02:44:18.071Z,82.25
2022-11-01T02:47:01.694Z,82.33
2022-11-01T02:49:40.316Z,82.21
2022-11-01T02:52:13.323Z,82.27
2022-11-01T02:54:45.702Z,82.51
2022-11-01T02:57:32.307Z,82.55
2022-11-01T03:00:05.214Z,82.49
2022-11-01T03:02:42.797Z,82.39
2022-11-01T03:05:52.807Z,82.49
2022-11-01T03:08:25.773Z,82.47
2022-11-01T03:11:14.067Z,82.48
2022-11-01T03:14:05.450Z,82.59
2022-11-01T03:17:00.417Z,82.62
2022-11-01T03:20:13.140Z,82.79
2022-11-01T03:22:46.990Z,82.85
2022-11-01T03:25:34.338Z,82.73
2022-11-01T03:28:07.349Z,82.82
2022-11-01T03:30:37.452Z,83.01
2022-11-01T03:33:05.987Z,83.06
2022-11-01T03:35:38.918Z,82.95
2022-11-01T03:38:12.951Z,83.05
2022-11-01T03:40:44.873Z,83.07
2022-11-01T03:43:17.450Z,83.00
2022-11-01T03:45:46.036Z,83.23
2022-11-01T03:48:14.927Z,83.48
2022-11-01T03:50:52.070Z,83.67
2022-11-01T03:53:19.921Z,83.86
2022-11-01T03:55:47.740Z,83.78
2022-11-01T03:58:15.820Z,83.90
2022-11-01T04:00:45.813Z,83.96
2022-11-01T04:03:14.249Z,83.80
2022-11-01T04:05:43.287Z,83.71
2022-11-01T04:08:11.872Z,83.71
2022-11-01T04:10:39.717Z,83.73
2022-11-01T04:13:08.662Z,83.50
2022-11-01T04:15:57.749Z,83.36
2022-11-01T04:18:46.597Z,83.46
2022-11-01T04:21:17.152Z,83.45
2022-11-01T04:23:46.454Z,83.39
2022-11-01T04:26:20.779Z,83.35
2022-11-01T04:28:57.377Z,83.34
2022-11-01T04:31:31.177Z,83.30
2022-11-01T04:34:04.650Z,83.38
2022-11-01T04:36:34.342Z,83.40
2022-11-01T04:39:02.221Z,83.39
2022-11-01T04:41:30.484Z,83.26
2022-11-01T04:43:59.449Z,83.31
2022-11-01T04:46:32.145Z,83.30
2022-11-01T04:49:00.603Z,83.52
2022-11-01T04:51:28.792Z,83.40
2022-11-01T04:53:57.214Z,83.43
2022-11-01T04:56:26.003Z,83.60
2022-11-01T04:58:54.077Z,83.41
2022-11-01T05:01:21.996Z,83.56
2022-11-01T05:03:52.207Z,83.50
2022-11-01T05:06:20.389Z,83.55
2022-11-01T05:08:51.204Z,83.68
2022-11-01T05:11:22.195Z,83.67
2022-11-01T05:13:50.042Z,83.56
2022-11-01T05:16:19.845Z,83.62
2022-11-01T05:18:50.525Z,83.71
2022-11-01T05:21:18.328Z,83.72
2022-11-01T05:23:49.301Z,83.75
2022-11-01T05:26:18.974Z,83.77
2022-11-01T05:28:56.268Z,83.73
2022-11-01T05:31:24.547Z,83.72
2022-11-01T05:33:52.341Z,83.73
2022-11-01T05:36:20.347Z,83.76
2022-11-01T05:38:49.615Z,83.77
2022-11-01T05:41:17.592Z,83.85
2022-11-01T05:43:47.071Z,83.72
2022-11-01T05:46:15.627Z,83.74
2022-11-01T05:48:44.535Z,83.91
2022-11-01T05:51:12.607Z,83.83
2022-11-01T05:53:49.176Z,83.84
2022-11-01T05:56:19.146Z,83.87
2022-11-01T05:58:47.813Z,83.87
2022-11-01T06:01:18.060Z,83.85
2022-11-01T06:03:50.247Z,83.80
2022-11-01T06:06:19.981Z,83.83
2022-11-01T06:08:48.303Z,83.79
2022-11-01T06:11:17.988Z,83.90
2022-11-01T06:13:47.008Z,84.02
2022-11-01T06:16:18.317Z,83.89
2022-11-01T06:18:46.075Z,83.92
2022-11-01T06:21:15.434Z,83.96
2022-11-01T06:23:47.363Z,83.94
2022-11-01T06:26:26.256Z,83.95
2022-11-01T06:28:54.531Z,84.06
2022-11-01T06:31:24.678Z,84.10
2022-11-01T06:33:52.725Z,84.04
2022-11-01T06:36:20.674Z,84.05
2022-11-01T06:38:49.821Z,84.20
2022-11-01T06:41:17.748Z,84.86
2022-11-01T06:43:49.826Z,85.15
2022-11-01T06:46:20.535Z,84.97
2022-11-01T06:48:49.555Z,84.67
2022-11-01T06:51:17.385Z,84.22
2022-11-01T06:53:45.919Z,83.41
2022-11-01T06:56:14.079Z,83.24
2022-11-01T06:58:42.378Z,83.18
2022-11-01T07:01:19.310Z,83.30
2022-11-01T07:03:52.556Z,83.24
2022-11-01T07:06:20.886Z,82.94
2022-11-01T07:08:50.424Z,83.05
2022-11-01T07:11:21.634Z,83.01
2022-11-01T07:13:50.741Z,82.72
2022-11-01T07:16:21.948Z,82.94
2022-11-01T07:18:55.080Z,82.81
2022-11-01T07:21:24.784Z,82.79
2022-11-01T07:23:58.109Z,82.95
2022-11-01T07:26:31.310Z,83.02
2022-11-01T07:28:59.529Z,83.07
2022-11-01T07:31:27.497Z,82.73
2022-11-01T07:33:58.887Z,82.74
2022-11-01T07:36:28.707Z,82.52
2022-11-01T07:38:57.380Z,82.26
2022-11-01T07:41:27.271Z,82.03
2022-11-01T07:43:57.866Z,81.85
2022-11-01T07:46:26.093Z,81.97
2022-11-01T07:48:57.083Z,82.04
2022-11-01T07:51:25.247Z,81.78
2022-11-01T07:53:54.735Z,81.79
2022-11-01T07:56:22.885Z,81.97
2022-11-01T07:58:51.184Z,81.98
2022-11-01T08:01:20.001Z,81.93
2022-11-01T08:03:49.606Z,81.98
2022-11-01T08:06:18.620Z,81.38
2022-11-01T08:08:47.901Z,81.36
2022-11-01T08:11:16.027Z,81.24
2022-11-01T08:13:44.845Z,81.00
2022-11-01T08:16:18.452Z,80.87
2022-11-01T08:18:47.725Z,80.53
2022-11-01T08:21:19.046Z,80.50
2022-11-01T08:23:50.161Z,80.47
2022-11-01T08:26:19.716Z,80.07
2022-11-01T08:28:51.261Z,79.83
2022-11-01T08:31:21.117Z,79.77
2022-11-01T08:33:56.523Z,79.57
2022-11-01T08:36:24.741Z,79.47
2022-11-01T08:38:55.334Z,79.40
2022-11-01T08:41:24.356Z,79.35
2022-11-01T08:43:52.771Z,79.16
2022-11-01T08:46:21.654Z,78.90
2022-11-01T08:49:00.232Z,79.01
2022-11-01T08:51:29.035Z,79.15
2022-11-01T08:53:58.259Z,78.98
2022-11-01T08:56:28.338Z,78.78
2022-11-01T08:58:58.133Z,78.73
2022-11-01T09:01:27.862Z,78.43
2022-11-01T09:04:07.763Z,78.43
2022-11-01T09:06:45.566Z,78.06
2022-11-01T09:09:14.664Z,77.83
2022-11-01T09:11:44.519Z,77.67
2022-11-01T09:14:14.300Z,77.63
2022-11-01T09:16:42.816Z,77.64
2022-11-01T09:19:12.329Z,77.56
2022-11-01T09:21:40.687Z,77.51
2022-11-01T09:24:15.230Z,77.37
2022-11-01T09:26:44.960Z,77.07
2022-11-01T09:29:22.052Z,77.03
2022-11-01T09:31:52.973Z,77.01
2022-11-01T09:34:21.991Z,76.78
2022-11-01T09:36:50.546Z,76.53
2022-11-01T09:39:22.568Z,76.53
2022-11-01T09:42:00.080Z,76.61
2022-11-01T09:44:37.506Z,76.47
2022-11-01T09:47:12.307Z,76.27
2022-11-01T09:49:50.945Z,76.48
2022-11-01T09:52:23.212Z,76.36
2022-11-01T09:54:52.022Z,76.24
2022-11-01T09:57:35.955Z,76.13
2022-11-01T10:00:19.353Z,75.96
2022-11-01T10:06:22.432Z,75.74
2022-11-01T10:09:32.311Z,75.71
2022-11-01T10:12:33.775Z,75.59
2022-11-01T10:15:18.377Z,75.27
2022-11-01T10:18:29.031Z,75.17
2022-11-01T10:21:03.009Z,74.92
2022-11-01T10:23:47.536Z,74.77
2022-11-01T10:26:27.055Z,74.59
2022-11-01T10:29:22.945Z,74.29
2022-11-01T10:31:54.490Z,74.17
2022-11-01T10:34:36.338Z,74.52
2022-11-01T10:37:28.039Z,74.21
2022-11-01T10:40:09.128Z,73.71
2022-11-01T10:42:38.045Z,73.53
2022-11-01T10:45:27.153Z,73.42
2022-11-01T10:47:58.368Z,73.29
2022-11-01T10:50:49.051Z,72.83
2022-11-01T10:53:19.828Z,72.46
2022-11-01T10:56:00.374Z,72.33
2022-11-01T10:58:40.008Z,72.31
2022-11-01T11:01:13.665Z,72.28
2022-11-01T11:03:44.591Z,72.35
2022-11-01T11:06:14.329Z,72.10
2022-11-01T11:08:45.114Z,71.88
2022-11-01T11:11:16.783Z,71.93
2022-11-01T11:13:53.589Z,71.86
2022-11-01T11:19:39.774Z,72.06
2022-11-01T11:22:12.855Z,71.76
2022-11-01T11:24:54.128Z,71.67
2022-11-01T11:27:26.574Z,71.70
2022-11-01T11:30:02.050Z,72.01
2022-11-01T11:32:35.010Z,71.65
2022-11-01T11:35:22.827Z,71.19
2022-11-01T11:37:58.153Z,71.33
2022-11-01T11:40:45.811Z,71.03
2022-11-01T11:43:36.424Z,71.07
2022-11-01T11:46:04.556Z,70.93
2022-11-01T11:48:33.984Z,70.73
2022-11-01T11:51:08.436Z,70.79
2022-11-01T11:53:38.041Z,70.71
2022-11-01T11:56:09.136Z,70.52
2022-11-01T11:58:50.442Z,70.70
2022-11-01T12:01:30.328Z,70.57
2022-11-01T12:04:06.715Z,70.25
2022-11-01T12:06:42.204Z,70.19
2022-11-01T12:12:33.617Z,70.18
2022-11-01T12:15:05.638Z,70.03
2022-11-01T12:17:46.223Z,69.95
2022-11-01T12:23:39.397Z,69.53
2022-11-01T12:26:17.474Z,69.75
2022-11-01T12:28:58.892Z,69.58
2022-11-01T12:31:31.605Z,70.01
2022-11-01T12:34:07.053Z,69.36
2022-11-01T12:36:46.565Z,69.28
2022-11-01T12:40:18.842Z,69.54
2022-11-01T12:42:52.975Z,69.40
2022-11-01T12:45:53.068Z,68.82
2022-11-01T12:48:47.295Z,68.78
2022-11-01T12:51:31.424Z,68.62
2022-11-01T12:54:15.679Z,68.76
2022-11-01T12:56:43.841Z,68.69
2022-11-01T12:59:22.220Z,68.72
2022-11-01T13:02:12.266Z,68.68
2022-11-01T13:05:32.797Z,68.54
2022-11-01T13:08:33.966Z,68.50
2022-11-01T13:11:36.018Z,68.51
2022-11-01T13:14:32.254Z,68.45
2022-11-01T13:17:31.796Z,68.46
2022-11-01T13:20:24.407Z,68.35
2022-11-01T13:23:14.080Z,68.27
2022-11-01T13:26:16.135Z,68.26
2022-11-01T13:28:58.493Z,68.12
2022-11-01T13:31:48.236Z,68.32
2022-11-01T13:34:42.071Z,68.39
2022-11-01T13:37:37.959Z,68.16
2022-11-01T13:40:30.201Z,68.18
2022-11-01T13:43:23.648Z,68.18
2022-11-01T13:46:17.181Z,68.03
2022-11-01T13:48:54.099Z,67.95
2022-11-01T13:51:58.641Z,68.07
2022-11-01T13:54:55.847Z,67.82
2022-11-01T13:57:26.446Z,68.01
2022-11-01T14:00:07.281Z,68.05
2022-11-01T14:02:54.976Z,68.00
2022-11-01T14:05:39.393Z,67.93
2022-11-01T14:08:36.655Z,67.97
2022-11-01T14:11:06.715Z,67.99
2022-11-01T14:13:40.047Z,67.72
2022-11-01T14:16:15.023Z,67.92
2022-11-01T14:19:27.123Z,67.73
2022-11-01T14:22:33.240Z,67.90
2022-11-01T14:25:23.857Z,67.78
2022-11-01T14:28:18.024Z,67.96
2022-11-01T14:30:54.087Z,67.86
2022-11-01T14:33:25.686Z,67.92
2022-11-01T14:36:06.721Z,68.05
2022-11-01T14:38:44.116Z,67.99
2022-11-01T14:41:15.594Z,67.95
2022-11-01T14:46:45.617Z,68.13
2022-11-01T14:49:43.026Z,68.26
2022-11-01T14:52:48.999Z,68.17
2022-11-01T14:55:23.738Z,68.21
2022-11-01T14:58:22.218Z,68.37
2022-11-01T15:00:58.980Z,68.40
2022-11-01T15:03:35.063Z,68.44
2022-11-01T15:06:05.245Z,68.47
2022-11-01T15:08:41.504Z,68.36
2022-11-01T15:11:09.895Z,68.51
2022-11-01T15:13:46.300Z,68.73
2022-11-01T15:16:23.496Z,68.92
2022-11-01T15:18:57.711Z,68.73
2022-11-01T15:21:30.839Z,68.72
2022-11-01T15:24:01.410Z,68.81
2022-11-01T15:26:33.575Z,68.94
2022-11-01T15:29:05.889Z,69.02
2022-11-01T15:31:36.483Z,69.07
2022-11-01T15:34:27.788Z,69.09
2022-11-01T15:36:58.880Z,69.23
2022-11-01T15:39:29.607Z,69.40
2022-11-01T15:41:58.522Z,69.42
2022-11-01T15:44:32.470Z,69.39
2022-11-01T15:47:07.105Z,69.56
2022-11-01T15:49:43.752Z,69.65
2022-11-01T15:52:34.645Z,69.76
2022-11-01T15:55:16.767Z,69.88
2022-11-01T15:57:51.844Z,69.94
2022-11-01T16:00:29.132Z,70.10
2022-11-01T16:03:13.103Z,70.12
2022-11-01T16:05:56.933Z,70.23
2022-11-01T16:08:42.314Z,70.29
2022-11-01T16:11:10.486Z,70.28
2022-11-01T16:13:39.280Z,70.33
2022-11-01T16:16:11.083Z,70.40
2022-11-01T16:18:43.596Z,70.47
2022-11-01T16:21:25.633Z,70.70
2022-11-01T16:24:11.684Z,70.69
2022-11-01T16:26:58.019Z,70.84
2022-11-01T16:30:00.737Z,70.79
2022-11-01T16:32:31.048Z,71.07
2022-11-01T16:35:03.309Z,71.05
2022-11-01T16:37:35.459Z,71.31
2022-11-01T16:40:24.785Z,71.12
2022-11-01T16:42:59.952Z,71.23
2022-11-01T16:45:28.504Z,71.31
2022-11-01T16:47:58.442Z,71.44
2022-11-01T16:50:27.125Z,71.40
2022-11-01T16:52:57.096Z,71.64
2022-11-01T16:55:28.482Z,71.58
2022-11-01T16:58:15.372Z,71.57
2022-11-01T17:01:05.041Z,71.95
2022-11-01T17:03:36.417Z,72.10
2022-11-01T17:06:06.467Z,71.92
2022-11-01T17:08:38.135Z,71.92
2022-11-01T17:11:09.206Z,71.99
2022-11-01T17:13:38.978Z,72.16
2022-11-01T17:16:20.459Z,72.17
2022-11-01T17:18:50.482Z,72.34
2022-11-01T17:21:18.845Z,72.48
2022-11-01T17:23:52.538Z,72.47
2022-11-01T17:26:24.165Z,72.39
2022-11-01T17:28:52.721Z,72.27
2022-11-01T17:31:21.268Z,72.48
2022-11-01T17:33:49.866Z,72.59
2022-11-01T17:36:21.083Z,72.68
2022-11-01T17:38:50.835Z,72.86
2022-11-01T17:41:20.212Z,72.85
2022-11-01T17:43:49.062Z,72.89
2022-11-01T17:46:22.983Z,72.77
2022-11-01T17:48:51.158Z,72.95
2022-11-01T17:51:19.700Z,73.07
2022-11-01T17:53:55.029Z,73.14
2022-11-01T17:56:24.506Z,73.15
2022-11-01T17:58:54.146Z,73.22
2022-11-01T18:01:23.336Z,73.25
2022-11-01T18:03:51.785Z,73.25
2022-11-01T18:06:22.873Z,73.38
2022-11-01T18:08:54.481Z,73.30
2022-11-01T18:11:39.107Z,73.47
2022-11-01T18:14:15.956Z,73.64
2022-11-01T18:16:59.717Z,73.64
2022-11-01T18:19:39.777Z,73.76
2022-11-01T18:22:40.161Z,73.62
2022-11-01T18:25:30.445Z,73.73
2022-11-01T18:28:10.003Z,73.83
2022-11-01T18:30:38.718Z,73.88
2022-11-01T18:33:38.726Z,74.02
2022-11-01T18:36:18.272Z,73.88
2022-11-01T18:39:15.686Z,73.98
2022-11-01T18:41:46.427Z,74.07
2022-11-01T18:44:22.214Z,73.97
2022-11-01T18:47:00.776Z,74.10
2022-11-01T18:49:30.567Z,74.18
2022-11-01T18:51:59.124Z,74.21
2022-11-01T18:54:31.978Z,74.23
2022-11-01T18:57:10.986Z,74.31
2022-11-01T18:59:40.905Z,74.28
2022-11-01T19:02:12.451Z,74.45
2022-11-01T19:04:43.725Z,74.29
2022-11-01T19:07:14.756Z,74.43
2022-11-01T19:09:50.222Z,74.53
2022-11-01T19:12:50.816Z,74.62
2022-11-01T19:15:25.874Z,74.60
2022-11-01T19:18:16.592Z,74.65
2022-11-01T19:20:53.169Z,74.62
2022-11-01T19:23:38.690Z,74.81
2022-11-01T19:26:22.614Z,74.69
2022-11-01T19:28:54.543Z,74.62
2022-11-01T19:31:30.914Z,74.67
2022-11-01T19:34:03.977Z,74.81
2022-11-01T19:36:46.552Z,74.90
2022-11-01T19:39:38.721Z,74.91
2022-11-01T19:42:20.991Z,74.82
2022-11-01T19:44:49.589Z,74.94
2022-11-01T19:47:34.966Z,75.00
2022-11-01T19:50:33.072Z,75.10
2022-11-01T19:53:01.343Z,75.00
2022-11-01T19:55:46.512Z,74.87
2022-11-01T19:58:26.298Z,75.08
2022-11-01T20:01:26.534Z,75.24
2022-11-01T20:04:27.226Z,75.41
2022-11-01T20:07:01.672Z,75.31
2022-11-01T20:09:31.108Z,75.51
2022-11-01T20:11:59.266Z,75.48
2022-11-01T20:14:28.092Z,75.42
2022-11-01T20:16:56.324Z,75.45
2022-11-01T20:19:24.503Z,75.53
2022-11-01T20:21:52.802Z,75.75
2022-11-01T20:24:22.274Z,75.67
2022-11-01T20:26:52.893Z,75.68
2022-11-01T20:29:23.319Z,75.82
2022-11-01T20:31:52.195Z,75.58
2022-11-01T20:34:21.735Z,75.79
2022-11-01T20:37:15.071Z,75.78
2022-11-01T20:39:40.907Z,75.93
2022-11-01T20:42:09.324Z,76.10
2022-11-01T20:44:38.962Z,76.06
2022-11-01T20:47:07.560Z,76.04
2022-11-01T20:49:36.514Z,76.08
2022-11-01T20:52:34.008Z,76.31
2022-11-01T20:54:54.685Z,76.22
2022-11-01T20:57:28.514Z,76.17
2022-11-01T20:59:57.471Z,76.25
2022-11-01T21:02:30.001Z,76.31
2022-11-01T21:05:07.457Z,76.54
2022-11-01T21:07:36.218Z,76.55
2022-11-01T21:10:35.116Z,76.50
2022-11-01T21:13:24.504Z,76.45
2022-11-01T21:15:59.304Z,76.64
2022-11-01T21:18:30.760Z,76.66
2022-11-01T21:21:09.481Z,76.64
2022-11-01T21:23:40.319Z,76.59
2022-11-01T21:26:19.269Z,76.86
2022-11-01T21:28:52.353Z,76.88
2022-11-01T21:31:34.969Z,77.09
2022-11-01T21:34:15.187Z,77.18
2022-11-01T21:36:50.849Z,77.01
2022-11-01T21:39:25.572Z,77.05
2022-11-01T21:41:57.759Z,77.16
2022-11-01T21:44:39.886Z,77.03
2022-11-01T21:47:18.007Z,77.09
2022-11-01T21:49:48.089Z,76.94
2022-11-01T21:52:19.626Z,77.10
2022-11-01T21:54:49.635Z,77.09
2022-11-01T21:57:20.631Z,77.06
2022-11-01T21:59:49.657Z,77.05
2022-11-01T22:02:17.744Z,77.13
2022-11-01T22:04:46.655Z,77.10
2022-11-01T22:07:14.859Z,77.31
2022-11-01T22:09:43.196Z,77.33
2022-11-01T22:12:11.339Z,77.21
2022-11-01T22:14:39.227Z,77.34
2022-11-01T22:17:07.228Z,77.31
2022-11-01T22:19:36.009Z,77.23
2022-11-01T22:22:05.807Z,77.39
2022-11-01T22:24:34.474Z,77.45
2022-11-01T22:27:05.265Z,77.53
2022-11-01T22:29:34.185Z,77.54
2022-11-01T22:32:02.562Z,77.43
2022-11-01T22:34:30.395Z,77.69
2022-11-01T22:37:00.688Z,77.70
2022-11-01T22:39:29.990Z,77.64
2022-11-01T22:41:59.867Z,77.65
2022-11-01T22:44:32.308Z,77.83
2022-11-01T22:47:02.670Z,77.86
2022-11-01T22:49:33.572Z,77.91
2022-11-01T22:52:25.657Z,78.01
2022-11-01T22:55:17.921Z,78.02
2022-11-01T22:58:01.033Z,78.08
2022-11-01T23:00:33.732Z,78.14
2022-11-01T23:03:20.943Z,78.03
2022-11-01T23:05:54.074Z,78.16
2022-11-01T23:08:27.452Z,78.10
2022-11-01T23:10:59.664Z,78.07
2022-11-01T23:13:55.519Z,78.10
2022-11-01T23:16:29.707Z,78.14
2022-11-01T23:19:05.989Z,78.30
2022-11-01T23:21:34.249Z,78.27
2022-11-01T23:24:07.213Z,78.18
2022-11-01T23:26:35.151Z,78.33
2022-11-01T23:29:04.107Z,78.35
2022-11-01T23:31:34.122Z,78.41
2022-11-01T23:34:03.333Z,78.46
2022-11-01T23:36:35.820Z,78.67
2022-11-01T23:39:10.651Z,78.60
2022-11-01T23:41:49.086Z,78.59
2022-11-01T23:44:36.115Z,78.66
2022-11-01T23:47:13.289Z,78.63
2022-11-01T23:49:42.288Z,78.78
2022-11-01T23:52:27.946Z,78.89
2022-11-01T23:55:00.942Z,78.91
2022-11-01T23:57:28.959Z,78.96
2022-11-01T23:59:57.039Z,79.11
